Time;durP1;ratioP1;P1;durP2;ratioP2;P2;SDS_P1;SDS_P2;PMS_P1;PMS_P2;Temp;Humidity;BMP_temperature;BMP_pressure;BME280_temperature;BME280_humidity;BME280_pressure;Samples;Min_cycle;Max_cycle;Signal;HPM_P1;HPM_P2
2022/07/29 00:01:35;;;;;;;6.40;5.80;;;22.20;99.90;;;;;;5003644;28;20602;-65
2022/07/29 00:04:01;;;;;;;7.17;6.47;;;22.30;99.90;;;;;;5004147;28;20446;-64
2022/07/29 00:06:26;;;;;;;6.03;5.63;;;22.40;99.90;;;;;;5004002;28;20267;-66
2022/07/29 00:08:52;;;;;;;7.03;6.43;;;22.40;99.90;;;;;;5004416;28;20664;-63
2022/07/29 00:11:17;;;;;;;6.60;6.10;;;22.40;99.90;;;;;;5001718;28;20511;-64
2022/07/29 00:13:43;;;;;;;7.03;6.30;;;22.40;99.90;;;;;;5004250;28;20226;-64
2022/07/29 00:16:09;;;;;;;5.90;5.50;;;22.30;99.90;;;;;;5004101;28;20207;-67
2022/07/29 00:18:34;;;;;;;7.57;6.80;;;22.30;99.90;;;;;;5003583;28;20600;-68
2022/07/29 00:21:00;;;;;;;6.40;5.90;;;22.20;99.90;;;;;;5003872;28;20198;-67
2022/07/29 00:23:26;;;;;;;6.50;6.00;;;22.20;99.90;;;;;;5007213;28;20207;-66
2022/07/29 00:25:51;;;;;;;7.93;7.33;;;22.20;99.90;;;;;;5008015;28;20180;-65
2022/07/29 00:28:17;;;;;;;6.43;5.93;;;22.30;99.90;;;;;;5007700;28;20267;-66
2022/07/29 00:30:43;;;;;;;6.70;6.20;;;22.20;99.90;;;;;;5007851;28;20179;-65
2022/07/29 00:33:09;;;;;;;6.77;6.03;;;22.20;99.90;;;;;;5007436;28;20215;-66
2022/07/29 00:35:44;;;;;;;6.97;6.47;;;22.20;99.90;;;;;;5007868;28;20422;-64
2022/07/29 00:38:14;;;;;;;6.73;6.23;;;22.10;99.90;;;;;;5008031;28;21598;-65
2022/07/29 00:40:40;;;;;;;6.40;5.90;;;22.00;99.90;;;;;;5007957;28;20553;-63
2022/07/29 00:43:05;;;;;;;7.27;6.67;;;21.90;99.90;;;;;;5003664;28;20486;-63
2022/07/29 00:45:31;;;;;;;7.00;6.40;;;21.90;99.90;;;;;;5007883;28;20415;-64
2022/07/29 00:47:57;;;;;;;7.10;6.60;;;21.90;99.90;;;;;;5007524;28;20259;-66
2022/07/29 00:50:23;;;;;;;6.93;6.40;;;22.00;99.90;;;;;;5007402;28;20180;-67
2022/07/29 00:52:50;;;;;;;6.53;6.03;;;21.90;99.90;;;;;;5007698;28;20188;-68
2022/07/29 00:55:16;;;;;;;7.40;6.70;;;22.00;99.90;;;;;;5007572;28;20429;-67
2022/07/29 00:57:43;;;;;;;6.20;5.70;;;21.90;99.90;;;;;;5006797;28;21438;-65
2022/07/29 01:00:17;;;;;;;8.33;5.70;;;21.90;99.90;;;;;;5008044;28;20411;-64
2022/07/29 01:02:42;;;;;;;6.57;6.03;;;21.90;99.90;;;;;;5005871;28;20458;-65
2022/07/29 01:05:08;;;;;;;6.10;5.70;;;21.80;99.90;;;;;;5007550;28;20509;-63
2022/07/29 01:07:35;;;;;;;6.53;5.93;;;21.70;99.90;;;;;;5007352;28;20410;-66
2022/07/29 01:10:04;;;;;;;6.30;5.80;;;21.80;99.90;;;;;;5007278;28;20176;-66
2022/07/29 01:12:34;;;;;;;7.03;6.30;;;21.90;99.90;;;;;;5007078;28;20458;-66
2022/07/29 01:15:02;;;;;;;6.83;6.33;;;21.90;99.90;;;;;;5007190;28;20402;-66
2022/07/29 01:17:35;;;;;;;6.77;6.07;;;21.80;99.90;;;;;;5006592;28;20619;-66
2022/07/29 01:20:44;;;;;;;6.50;6.00;;;21.70;99.90;;;;;;5007150;28;20597;-67
2022/07/29 01:23:39;;;;;;;6.80;6.27;;;21.80;99.90;;;;;;5007045;28;20612;-67
2022/07/29 01:26:23;;;;;;;6.30;5.80;;;21.80;99.90;;;;;;5006506;28;20414;-67
2022/07/29 01:29:03;;;;;;;6.53;6.00;;;21.90;99.90;;;;;;5006753;28;20402;-66
2022/07/29 01:31:43;;;;;;;6.33;5.90;;;21.90;99.90;;;;;;5006096;28;20395;-66
2022/07/29 01:34:15;;;;;;;6.00;5.50;;;21.80;99.90;;;;;;5005068;28;21003;-66
2022/07/29 01:36:50;;;;;;;6.90;6.20;;;21.80;99.90;;;;;;5006823;28;20411;-63
2022/07/29 01:39:33;;;;;;;5.80;5.37;;;21.80;99.90;;;;;;5006277;28;20806;-63
2022/07/29 01:42:20;;;;;;;5.67;5.20;;;21.80;99.90;;;;;;5006652;28;20491;-63
2022/07/29 01:44:59;;;;;;;6.40;5.80;;;21.80;99.90;;;;;;5006463;28;20927;-65
2022/07/29 01:47:31;;;;;;;7.30;6.53;;;21.80;99.90;;;;;;5008001;28;21302;-66
2022/07/29 01:49:59;;;;;;;5.13;4.67;;;21.60;99.90;;;;;;5006439;28;20469;-67
2022/07/29 01:52:36;;;;;;;5.40;5.00;;;21.60;99.90;;;;;;5006461;28;20441;-67
2022/07/29 01:55:11;;;;;;;5.50;5.10;;;21.60;99.90;;;;;;5006321;28;20407;-67
2022/07/29 01:57:40;;;;;;;6.40;5.90;;;21.60;99.90;;;;;;5004120;28;20422;-66
2022/07/29 02:00:06;;;;;;;6.03;5.53;;;21.60;99.90;;;;;;5006146;28;20406;-65
2022/07/29 02:02:34;;;;;;;5.33;4.93;;;21.60;99.90;;;;;;5005021;28;20466;-66
2022/07/29 02:05:02;;;;;;;5.60;5.20;;;21.50;99.90;;;;;;5006047;28;20935;-65
2022/07/29 02:07:31;;;;;;;5.70;5.30;;;21.50;99.90;;;;;;5006264;28;20421;-65
2022/07/29 02:09:58;;;;;;;5.90;5.50;;;21.40;99.90;;;;;;5005869;28;20422;-67
2022/07/29 02:12:25;;;;;;;5.47;5.07;;;21.40;99.90;;;;;;5004043;28;20446;-67
2022/07/29 02:14:53;;;;;;;6.30;5.90;;;21.40;99.90;;;;;;5006350;28;20434;-67
2022/07/29 02:17:24;;;;;;;5.50;5.10;;;21.40;99.90;;;;;;5005868;28;20414;-66
2022/07/29 02:19:54;;;;;;;6.33;5.73;;;21.40;99.90;;;;;;5006263;28;20767;-65
2022/07/29 02:22:20;;;;;;;5.50;5.10;;;21.30;99.90;;;;;;5006053;28;20510;-64
2022/07/29 02:24:47;;;;;;;5.57;5.20;;;21.30;99.90;;;;;;5005500;28;20427;-65
2022/07/29 02:27:14;;;;;;;6.40;5.47;;;21.30;99.90;;;;;;5005230;28;20425;-66
2022/07/29 02:29:41;;;;;;;5.03;4.63;;;21.30;99.90;;;;;;5006009;28;20482;-65
2022/07/29 02:32:10;;;;;;;5.47;5.07;;;21.20;99.90;;;;;;5005720;28;20485;-66
2022/07/29 02:34:37;;;;;;;6.13;5.70;;;21.10;99.90;;;;;;5005439;28;20814;-66
2022/07/29 02:37:04;;;;;;;5.30;4.90;;;21.00;99.90;;;;;;5006170;28;20410;-66
2022/07/29 02:39:31;;;;;;;6.03;4.60;;;20.90;99.90;;;;;;5005469;28;20437;-66
2022/07/29 02:42:05;;;;;;;5.97;5.20;;;21.00;99.90;;;;;;5005289;28;20473;-66
2022/07/29 02:44:32;;;;;;;5.50;5.00;;;21.20;99.90;;;;;;5005778;28;20926;-66
2022/07/29 02:47:03;;;;;;;5.90;5.40;;;21.20;99.90;;;;;;5005719;28;20466;-65
2022/07/29 02:49:29;;;;;;;4.50;4.10;;;21.30;99.90;;;;;;5006209;28;20411;-65
2022/07/29 02:51:59;;;;;;;4.80;4.40;;;21.40;99.90;;;;;;5006290;28;20432;-66
2022/07/29 02:54:45;;;;;;;5.67;5.17;;;21.40;99.90;;;;;;5005941;28;20199;-66
2022/07/29 02:57:34;;;;;;;5.40;4.97;;;21.40;99.90;;;;;;5005062;28;20437;-67
2022/07/29 03:00:06;;;;;;;6.03;5.60;;;21.50;99.90;;;;;;5005829;28;20445;-68
2022/07/29 03:02:38;;;;;;;5.43;4.93;;;21.50;99.90;;;;;;5004392;28;20955;-68
2022/07/29 03:05:06;;;;;;;5.47;4.97;;;21.50;99.90;;;;;;5005113;28;21029;-67
2022/07/29 03:07:33;;;;;;;5.50;5.10;;;21.40;99.90;;;;;;5005508;28;20413;-67
2022/07/29 03:09:59;;;;;;;5.27;4.87;;;21.40;99.90;;;;;;5005274;28;20434;-67
2022/07/29 03:12:26;;;;;;;5.80;5.40;;;21.40;99.90;;;;;;5005387;28;20415;-69
2022/07/29 03:14:52;;;;;;;5.80;5.30;;;21.50;99.90;;;;;;5005025;28;20462;-68
2022/07/29 03:17:19;;;;;;;5.37;4.87;;;21.50;99.90;;;;;;5004968;28;20450;-66
2022/07/29 03:19:45;;;;;;;6.07;5.67;;;21.50;99.90;;;;;;5004585;28;20461;-68
2022/07/29 03:22:11;;;;;;;5.80;5.20;;;21.50;99.90;;;;;;5004990;28;20963;-66
2022/07/29 03:24:38;;;;;;;6.00;5.50;;;21.50;99.90;;;;;;5004815;28;20204;-65
2022/07/29 03:27:05;;;;;;;5.40;5.00;;;21.30;99.90;;;;;;5004145;28;20411;-67
2022/07/29 03:29:31;;;;;;;6.40;5.80;;;21.20;99.90;;;;;;5005242;28;20819;-67
2022/07/29 03:31:57;;;;;;;5.10;4.80;;;21.00;99.90;;;;;;5004639;28;20415;-68
2022/07/29 03:34:22;;;;;;;4.80;4.40;;;20.90;99.90;;;;;;5004377;28;20502;-68
2022/07/29 03:36:48;;;;;;;5.23;4.73;;;20.90;99.90;;;;;;5004543;28;20187;-68
2022/07/29 03:39:20;;;;;;;5.13;4.70;;;20.90;99.90;;;;;;5004350;28;20221;-67
2022/07/29 03:41:49;;;;;;;5.63;5.20;;;20.90;99.90;;;;;;5004613;28;20482;-67
2022/07/29 03:44:17;;;;;;;4.80;4.50;;;20.90;99.90;;;;;;5004727;28;20928;-68
2022/07/29 03:46:44;;;;;;;5.83;5.33;;;20.80;99.90;;;;;;4987052;28;20419;-68
2022/07/29 03:49:12;;;;;;;5.07;4.67;;;20.90;99.90;;;;;;5003992;28;20410;-68
2022/07/29 03:51:38;;;;;;;5.80;5.23;;;20.80;99.90;;;;;;5004630;28;20422;-67
2022/07/29 03:54:05;;;;;;;5.97;5.47;;;20.80;99.90;;;;;;5004857;28;20440;-67
2022/07/29 03:56:34;;;;;;;5.00;4.70;;;20.80;99.90;;;;;;5003265;28;20458;-68
2022/07/29 03:59:02;;;;;;;5.93;5.33;;;20.80;99.90;;;;;;5004613;28;20411;-67
2022/07/29 04:01:29;;;;;;;5.57;5.07;;;20.60;99.90;;;;;;5004800;28;20594;-67
2022/07/29 04:03:55;;;;;;;5.60;5.10;;;20.60;99.90;;;;;;5003090;28;20470;-67
2022/07/29 04:06:21;;;;;;;6.00;5.50;;;20.60;99.90;;;;;;5004492;28;20411;-67
2022/07/29 04:08:46;;;;;;;5.90;5.40;;;20.40;99.90;;;;;;5004709;28;20879;-67
2022/07/29 04:11:12;;;;;;;5.63;5.23;;;20.40;99.90;;;;;;5004517;28;20176;-67
2022/07/29 04:13:38;;;;;;;6.83;6.23;;;20.30;99.90;;;;;;5004472;28;20199;-68
2022/07/29 04:16:03;;;;;;;6.17;5.60;;;20.20;99.90;;;;;;5004435;28;20180;-68
2022/07/29 04:18:29;;;;;;;6.03;5.53;;;20.10;99.90;;;;;;4989916;28;20460;-68
2022/07/29 04:20:55;;;;;;;5.43;4.90;;;20.10;99.90;;;;;;5004477;28;20259;-68
2022/07/29 04:23:20;;;;;;;5.93;5.53;;;20.00;99.90;;;;;;5004047;28;20212;-68
2022/07/29 04:25:46;;;;;;;4.93;4.53;;;20.10;99.90;;;;;;5004364;28;20260;-68
2022/07/29 04:28:12;;;;;;;6.00;5.60;;;20.30;99.90;;;;;;5003499;28;20634;-67
2022/07/29 04:30:39;;;;;;;4.90;4.53;;;20.50;99.90;;;;;;5004177;28;20172;-68
2022/07/29 04:33:06;;;;;;;5.70;5.30;;;20.50;99.90;;;;;;5003286;28;20458;-68
2022/07/29 04:35:37;;;;;;;4.80;4.50;;;20.50;99.90;;;;;;5003863;28;20794;-68
2022/07/29 04:38:03;;;;;;;6.03;5.50;;;20.50;99.90;;;;;;5003811;28;20415;-68
2022/07/29 04:40:29;;;;;;;5.60;5.20;;;20.40;99.90;;;;;;5004320;28;20423;-68
2022/07/29 04:42:55;;;;;;;6.00;5.50;;;20.50;99.90;;;;;;5003962;28;20486;-68
2022/07/29 04:45:20;;;;;;;5.40;4.90;;;20.50;99.90;;;;;;5004049;28;20176;-68
2022/07/29 04:47:46;;;;;;;5.13;4.73;;;20.50;99.90;;;;;;5003885;28;20600;-69
2022/07/29 04:50:11;;;;;;;5.70;5.30;;;20.70;99.90;;;;;;5003272;28;20176;-68
2022/07/29 04:52:37;;;;;;;4.37;4.03;;;20.80;99.90;;;;;;5003786;28;20191;-68
2022/07/29 04:55:05;;;;;;;5.40;4.90;;;20.80;99.90;;;;;;5003943;28;20230;-68
2022/07/29 04:57:31;;;;;;;4.83;4.53;;;20.80;99.90;;;;;;5003376;28;20632;-67
2022/07/29 04:59:56;;;;;;;4.70;4.30;;;21.00;99.90;;;;;;5003868;28;20464;-68
2022/07/29 05:02:22;;;;;;;4.73;4.30;;;21.10;99.90;;;;;;5003357;28;20720;-68
2022/07/29 05:04:48;;;;;;;4.53;4.17;;;21.20;99.90;;;;;;5001868;28;20188;-67
2022/07/29 05:07:14;;;;;;;4.30;4.00;;;21.30;99.90;;;;;;5003817;28;20176;-68
2022/07/29 05:09:39;;;;;;;4.73;4.33;;;21.40;99.90;;;;;;5006979;28;20425;-67
2022/07/29 05:12:06;;;;;;;4.70;4.40;;;21.40;99.90;;;;;;5007577;28;20223;-68
2022/07/29 05:14:31;;;;;;;4.90;4.00;;;21.50;99.90;;;;;;5007640;28;20204;-67
2022/07/29 05:16:57;;;;;;;4.37;4.07;;;21.50;99.90;;;;;;5007481;28;20429;-68
2022/07/29 05:19:23;;;;;;;4.23;3.93;;;21.50;99.90;;;;;;5006790;28;20637;-68
2022/07/29 05:21:49;;;;;;;4.10;3.80;;;21.50;99.90;;;;;;5007025;28;20303;-68
2022/07/29 05:24:15;;;;;;;5.10;4.00;;;21.40;99.90;;;;;;5007351;28;20426;-68
2022/07/29 05:26:41;;;;;;;3.40;3.20;;;21.40;99.90;;;;;;5006736;28;20414;-67
2022/07/29 05:29:07;;;;;;;4.83;3.03;;;21.60;99.90;;;;;;5006900;28;20450;-68
2022/07/29 05:31:33;;;;;;;3.97;3.57;;;21.80;99.90;;;;;;5006910;28;20583;-66
2022/07/29 05:33:59;;;;;;;3.30;3.10;;;21.90;99.90;;;;;;5006050;28;20230;-65
2022/07/29 05:36:24;;;;;;;3.10;2.80;;;21.80;99.90;;;;;;5006908;28;20445;-65
2022/07/29 05:38:51;;;;;;;3.10;2.90;;;21.90;99.90;;;;;;4995515;28;20968;-68
2022/07/29 05:41:17;;;;;;;3.17;2.97;;;22.00;99.90;;;;;;5006928;28;20183;-68
2022/07/29 05:43:43;;;;;;;3.50;3.20;;;22.30;99.90;;;;;;5006786;28;20476;-67
2022/07/29 05:46:09;;;;;;;3.03;2.70;;;22.60;99.90;;;;;;5006898;28;20415;-67
2022/07/29 05:48:34;;;;;;;2.30;2.20;;;22.70;99.90;;;;;;5006628;28;20180;-65
2022/07/29 05:51:00;;;;;;;4.10;2.97;;;22.80;99.90;;;;;;5006676;28;20176;-68
2022/07/29 05:53:26;;;;;;;3.60;3.33;;;22.90;99.90;;;;;;5006754;28;20196;-69
2022/07/29 05:55:52;;;;;;;3.30;2.93;;;23.10;99.90;;;;;;5006426;28;20270;-66
2022/07/29 05:58:17;;;;;;;5.40;2.73;;;23.10;99.90;;;;;;5006165;28;20219;-68
2022/07/29 06:00:43;;;;;;;2.70;2.50;;;23.30;99.90;;;;;;5006527;28;20184;-67
2022/07/29 06:03:09;;;;;;;2.93;2.73;;;23.50;99.90;;;;;;5005524;28;20462;-68
2022/07/29 06:05:35;;;;;;;2.80;2.60;;;23.60;99.90;;;;;;5006256;28;20409;-68
2022/07/29 06:08:00;;;;;;;3.57;3.20;;;23.80;99.90;;;;;;5006809;28;20211;-65
2022/07/29 06:10:26;;;;;;;3.80;3.50;;;23.80;99.90;;;;;;5007090;28;20188;-65
2022/07/29 06:12:52;;;;;;;3.80;3.10;;;23.80;99.90;;;;;;5006617;28;20585;-65
2022/07/29 06:15:18;;;;;;;3.00;2.70;;;23.60;99.90;;;;;;5005145;28;20193;-64
2022/07/29 06:17:43;;;;;;;3.33;2.87;;;23.70;99.90;;;;;;5005723;28;20286;-68
2022/07/29 06:20:10;;;;;;;3.33;3.03;;;23.90;99.90;;;;;;5005201;28;20187;-67
2022/07/29 06:22:35;;;;;;;3.20;2.90;;;24.00;99.90;;;;;;5006016;28;20210;-67
2022/07/29 06:25:02;;;;;;;4.13;3.20;;;24.20;99.90;;;;;;5005818;28;20411;-67
2022/07/29 06:27:27;;;;;;;3.90;3.40;;;24.50;99.90;;;;;;5004839;28;20263;-67
2022/07/29 06:29:53;;;;;;;3.93;3.63;;;24.40;99.90;;;;;;5005889;28;20474;-67
2022/07/29 06:32:19;;;;;;;5.90;3.50;;;24.20;99.90;;;;;;5006373;28;20184;-67
2022/07/29 06:34:45;;;;;;;4.80;2.87;;;24.30;99.90;;;;;;5005492;28;21029;-68
2022/07/29 06:37:10;;;;;;;3.47;3.17;;;24.00;99.90;;;;;;5005767;28;20259;-67
2022/07/29 06:39:36;;;;;;;4.50;4.10;;;24.20;99.90;;;;;;5005721;28;20188;-69
2022/07/29 06:42:05;;;;;;;4.13;3.70;;;24.30;99.90;;;;;;5005571;28;20226;-68
2022/07/29 06:44:33;;;;;;;3.33;3.03;;;24.30;99.90;;;;;;5005561;28;20451;-67
2022/07/29 06:46:59;;;;;;;3.70;3.40;;;24.20;99.90;;;;;;5005115;28;20419;-66
2022/07/29 06:49:26;;;;;;;3.70;3.40;;;24.40;99.90;;;;;;5003864;28;20414;-68
2022/07/29 06:51:52;;;;;;;3.50;3.20;;;24.60;99.90;;;;;;5005367;28;20919;-70
2022/07/29 06:54:17;;;;;;;4.83;3.73;;;24.80;99.90;;;;;;5005003;28;20476;-69
2022/07/29 06:56:43;;;;;;;4.80;4.07;;;25.00;99.90;;;;;;5004814;28;20450;-68
2022/07/29 06:59:10;;;;;;;4.50;4.10;;;24.90;99.90;;;;;;5005008;28;20222;-67
2022/07/29 07:01:41;;;;;;;3.60;3.30;;;24.60;99.90;;;;;;5005024;28;20172;-67
2022/07/29 07:04:08;;;;;;;5.00;4.10;;;24.50;99.90;;;;;;5003820;28;20491;-67
2022/07/29 07:06:34;;;;;;;5.83;3.83;;;24.80;99.90;;;;;;5005151;28;20517;-65
2022/07/29 07:09:00;;;;;;;4.20;3.80;;;24.80;99.90;;;;;;5004859;28;20417;-66
2022/07/29 07:11:26;;;;;;;4.87;4.47;;;24.90;99.90;;;;;;5004877;28;20423;-67
2022/07/29 07:13:51;;;;;;;4.30;4.00;;;24.80;99.90;;;;;;5004736;28;20212;-64
2022/07/29 07:16:17;;;;;;;4.37;4.03;;;25.00;99.90;;;;;;5004815;28;20179;-68
2022/07/29 07:18:44;;;;;;;6.40;3.67;;;24.90;99.90;;;;;;5004368;28;20183;-69
2022/07/29 07:21:10;;;;;;;4.73;4.33;;;25.10;99.90;;;;;;5004768;28;20709;-68
2022/07/29 07:23:36;;;;;;;4.50;4.10;;;25.40;99.90;;;;;;5004735;28;20512;-68
2022/07/29 07:26:02;;;;;;;4.83;3.80;;;25.70;99.90;;;;;;5004563;28;20184;-68
2022/07/29 07:28:28;;;;;;;4.63;4.23;;;26.00;99.90;;;;;;5003330;28;20222;-68
2022/07/29 07:30:54;;;;;;;4.70;4.30;;;26.10;99.90;;;;;;5003978;28;20818;-68
2022/07/29 07:33:20;;;;;;;4.17;3.87;;;25.80;99.90;;;;;;5003922;28;20270;-68
2022/07/29 07:35:45;;;;;;;4.40;4.10;;;25.50;99.90;;;;;;5004370;28;20233;-69
2022/07/29 07:38:11;;;;;;;4.40;4.00;;;25.60;99.90;;;;;;5004325;28;20242;-69
2022/07/29 07:40:37;;;;;;;4.70;4.17;;;25.50;99.90;;;;;;5004703;28;20183;-69
2022/07/29 07:43:02;;;;;;;4.50;4.10;;;25.10;99.90;;;;;;5004639;28;20258;-68
2022/07/29 07:45:28;;;;;;;4.70;4.30;;;24.80;99.90;;;;;;4987535;28;20215;-69
2022/07/29 07:47:54;;;;;;;5.20;3.87;;;25.00;99.90;;;;;;5001892;28;20183;-69
2022/07/29 07:50:19;;;;;;;5.10;4.17;;;25.40;99.90;;;;;;5004440;28;20554;-68
2022/07/29 07:52:54;;;;;;;4.43;3.63;;;25.70;99.90;;;;;;5003974;28;20203;-69
2022/07/29 07:55:20;;;;;;;4.53;4.13;;;25.80;99.90;;;;;;5004268;28;20211;-69
2022/07/29 07:57:46;;;;;;;4.17;3.87;;;26.10;99.90;;;;;;4995621;28;20542;-68
2022/07/29 08:00:14;;;;;;;5.53;3.77;;;26.30;99.90;;;;;;5004253;28;20180;-68
2022/07/29 08:02:40;;;;;;;4.67;4.23;;;26.60;99.90;;;;;;5003987;28;20454;-69
2022/07/29 08:05:07;;;;;;;6.33;4.90;;;26.30;99.90;;;;;;5003792;28;20484;-68
2022/07/29 08:07:33;;;;;;;6.63;4.27;;;26.20;99.90;;;;;;5004220;28;20459;-69
2022/07/29 08:09:58;;;;;;;5.07;4.20;;;25.90;99.90;;;;;;5004005;28;20475;-69
2022/07/29 08:12:24;;;;;;;5.03;4.63;;;26.20;99.90;;;;;;5004250;28;20182;-68
2022/07/29 08:14:49;;;;;;;4.80;4.40;;;26.30;99.90;;;;;;5003750;28;20661;-69
2022/07/29 08:17:15;;;;;;;4.30;3.93;;;26.10;99.90;;;;;;5003948;28;20186;-66
2022/07/29 08:19:40;;;;;;;4.57;4.17;;;25.80;99.90;;;;;;5003768;28;20175;-65
2022/07/29 08:22:06;;;;;;;5.30;4.67;;;25.60;99.90;;;;;;5003910;28;20188;-66
2022/07/29 08:24:54;;;;;;;4.50;4.10;;;25.50;99.90;;;;;;5003925;28;20196;-68
2022/07/29 08:27:20;;;;;;;5.00;4.70;;;25.50;99.90;;;;;;5003157;28;20195;-65
2022/07/29 08:29:45;;;;;;;5.13;4.73;;;25.60;99.90;;;;;;5003758;28;20794;-68
2022/07/29 08:32:11;;;;;;;5.03;4.50;;;25.50;99.90;;;;;;5004210;28;20417;-69
2022/07/29 08:34:36;;;;;;;6.10;5.47;;;25.50;99.90;;;;;;5003170;28;20298;-68
2022/07/29 08:37:02;;;;;;;5.67;4.67;;;25.60;99.90;;;;;;5003856;28;20211;-66
2022/07/29 08:39:28;;;;;;;6.00;5.43;;;25.60;99.90;;;;;;5003908;28;20193;-69
2022/07/29 08:41:54;;;;;;;7.33;5.23;;;25.60;99.90;;;;;;5004106;28;20218;-69
2022/07/29 08:44:21;;;;;;;5.63;4.53;;;25.90;99.90;;;;;;5005285;28;20211;-69
2022/07/29 08:46:49;;;;;;;5.10;4.67;;;25.70;99.90;;;;;;5007708;28;21101;-66
2022/07/29 08:49:15;;;;;;;5.23;4.67;;;25.40;99.90;;;;;;5007896;28;20425;-69
2022/07/29 08:51:42;;;;;;;5.00;4.60;;;25.60;99.90;;;;;;5007718;28;20415;-69
2022/07/29 08:54:09;;;;;;;6.07;5.47;;;25.80;99.90;;;;;;5007375;28;20474;-68
2022/07/29 08:56:37;;;;;;;12.80;5.10;;;25.80;99.90;;;;;;5006828;28;20418;-66
2022/07/29 08:59:05;;;;;;;5.50;5.00;;;26.00;99.90;;;;;;5007175;28;20782;-66
2022/07/29 09:01:33;;;;;;;6.33;5.00;;;26.00;99.90;;;;;;5007418;28;20436;-65
2022/07/29 09:04:00;;;;;;;4.80;4.40;;;26.30;99.90;;;;;;5006135;28;20476;-69
2022/07/29 09:06:32;;;;;;;5.03;4.63;;;26.30;99.90;;;;;;5007181;28;20407;-66
2022/07/29 09:08:59;;;;;;;7.70;4.60;;;26.10;99.90;;;;;;4989779;28;20808;-69
2022/07/29 09:11:25;;;;;;;5.67;5.07;;;26.10;99.90;;;;;;5007781;28;20411;-69
2022/07/29 09:13:51;;;;;;;5.90;5.40;;;26.50;99.90;;;;;;5007173;28;20462;-69
2022/07/29 09:16:17;;;;;;;5.53;5.00;;;26.80;99.90;;;;;;5007161;28;20446;-66
2022/07/29 09:18:45;;;;;;;5.63;5.23;;;26.50;99.90;;;;;;5007222;28;20176;-68
2022/07/29 09:24:12;;;;;;;5.60;5.00;;;27.10;99.90;;;;;;5006490;28;20492;-69
2022/07/29 09:26:45;;;;;;;7.40;5.40;;;27.40;99.90;;;;;;5006299;28;20469;-66
2022/07/29 09:29:12;;;;;;;6.57;5.27;;;27.50;99.50;;;;;;5006854;28;20461;-66
2022/07/29 09:31:40;;;;;;;4.90;4.40;;;27.80;99.80;;;;;;5006968;28;20407;-69
2022/07/29 09:34:06;;;;;;;5.97;5.17;;;27.90;99.30;;;;;;5006313;28;20454;-67
2022/07/29 09:36:48;;;;;;;6.37;5.70;;;27.90;99.10;;;;;;5006584;28;20502;-67
2022/07/29 09:39:15;;;;;;;7.63;4.97;;;27.90;98.20;;;;;;5031871;22;20573;-68
2022/07/29 09:41:52;;;;;;;5.53;5.03;;;27.90;98.40;;;;;;4998013;28;20758;-68
2022/07/29 09:44:19;;;;;;;7.70;5.43;;;27.90;98.00;;;;;;5006322;28;20418;-72
2022/07/29 09:47:09;;;;;;;6.60;5.40;;;27.80;97.70;;;;;;4987097;28;20411;-69
2022/07/29 09:49:51;;;;;;;4.93;4.53;;;27.90;98.00;;;;;;5008460;28;20438;-72
2022/07/29 09:52:17;;;;;;;5.97;5.47;;;28.10;97.50;;;;;;5006377;28;20737;-69
2022/07/29 09:54:42;;;;;;;6.17;5.63;;;28.30;97.50;;;;;;5004827;28;20415;-70
2022/07/29 09:57:20;;;;;;;5.73;5.23;;;28.30;96.60;;;;;;5024642;28;20208;-67
2022/07/29 10:00:28;;;;;;;5.00;4.30;;;28.50;96.90;;;;;;5009947;28;20212;-72
2022/07/29 10:03:00;;;;;;;5.93;5.33;;;29.00;96.80;;;;;;4942158;28;20466;-72
2022/07/29 10:05:29;;;;;;;8.87;5.53;;;29.50;95.20;;;;;;5004252;28;20416;-68
2022/07/29 10:07:57;;;;;;;5.53;5.13;;;29.10;94.80;;;;;;5016054;28;20414;-68
2022/07/29 10:10:26;;;;;;;6.00;5.07;;;29.00;95.30;;;;;;5025688;28;20430;-66
2022/07/29 10:12:55;;;;;;;5.43;4.93;;;29.20;94.80;;;;;;5016137;28;20410;-68
2022/07/29 10:15:32;;;;;;;5.37;4.87;;;29.50;94.40;;;;;;5022140;28;20417;-69
2022/07/29 10:17:59;;;;;;;5.30;4.90;;;29.30;94.90;;;;;;5005953;28;21477;-68
2022/07/29 10:20:26;;;;;;;5.40;5.00;;;29.40;94.10;;;;;;5019855;28;21115;-65
2022/07/29 10:22:52;;;;;;;5.60;5.17;;;29.30;93.80;;;;;;5025610;28;20493;-67
2022/07/29 10:25:19;;;;;;;7.03;6.10;;;28.80;93.90;;;;;;5009974;28;20856;-68
2022/07/29 10:27:46;;;;;;;6.50;4.90;;;28.40;94.50;;;;;;5024484;28;20801;-71
2022/07/29 10:30:14;;;;;;;5.23;4.80;;;27.80;95.20;;;;;;5022833;28;20422;-68
2022/07/29 10:32:45;;;;;;;6.10;4.77;;;27.90;94.80;;;;;;5010465;28;20970;-69
2022/07/29 10:35:15;;;;;;;4.97;4.57;;;28.20;94.80;;;;;;5027052;28;20418;-69
2022/07/29 10:38:18;;;;;;;7.60;5.67;;;28.20;95.00;;;;;;5024790;28;20436;-67
2022/07/29 10:43:42;;;;;;;8.93;5.40;;;27.80;97.70;;;;;;5026025;28;20801;-70
2022/07/29 10:46:08;;;;;;;6.97;5.70;;;27.70;98.40;;;;;;5017925;28;20398;-69
2022/07/29 10:48:34;;;;;;;6.20;5.60;;;27.70;99.90;;;;;;5024519;28;20956;-69
2022/07/29 10:51:03;;;;;;;8.73;7.43;;;27.40;99.90;;;;;;5028970;28;20418;-67
2022/07/29 10:53:50;;;;;;;10.27;7.93;;;27.30;99.90;;;;;;5010378;28;20433;-67
2022/07/29 10:56:27;;;;;;;20.43;13.03;;;26.80;99.90;;;;;;5018561;28;20410;-69
2022/07/29 10:59:20;;;;;;;15.70;11.00;;;26.00;99.90;;;;;;5027209;28;20435;-69
2022/07/29 11:01:47;;;;;;;13.83;11.27;;;25.00;99.90;;;;;;5019095;28;20438;-67
2022/07/29 11:04:13;;;;;;;14.40;12.40;;;24.50;99.90;;;;;;5021690;28;20451;-68
2022/07/29 11:06:58;;;;;;;15.13;11.83;;;24.00;99.90;;;;;;5008642;28;20426;-69
2022/07/29 11:09:23;;;;;;;17.60;12.97;;;23.30;99.90;;;;;;5014062;28;20445;-67
2022/07/29 11:11:49;;;;;;;18.57;14.97;;;22.80;99.90;;;;;;5022025;28;20583;-68
2022/07/29 11:14:16;;;;;;;13.80;12.40;;;22.50;99.90;;;;;;5024401;28;20262;-67
2022/07/29 11:17:00;;;;;;;13.57;12.17;;;22.30;99.90;;;;;;5024364;28;20168;-69
2022/07/29 11:19:26;;;;;;;13.53;12.17;;;21.70;99.90;;;;;;5024170;28;20452;-67
2022/07/29 11:21:52;;;;;;;17.20;14.40;;;21.60;99.90;;;;;;5023847;28;20548;-67
2022/07/29 11:24:27;;;;;;;12.53;11.07;;;21.50;99.90;;;;;;5024011;28;20199;-67
2022/07/29 11:27:30;;;;;;;14.10;12.57;;;21.50;99.90;;;;;;5016451;28;20424;-67
2022/07/29 11:30:01;;;;;;;14.83;13.13;;;21.40;99.90;;;;;;5023850;28;20432;-70
2022/07/29 11:32:37;;;;;;;13.93;12.60;;;21.30;99.90;;;;;;5011486;28;20419;-68
2022/07/29 11:35:21;;;;;;;11.93;10.87;;;21.30;99.90;;;;;;5020188;28;20437;-67
2022/07/29 11:38:23;;;;;;;11.30;10.30;;;21.30;99.90;;;;;;5017692;28;20427;-71
2022/07/29 11:41:16;;;;;;;10.67;9.67;;;21.20;99.90;;;;;;5015932;28;20453;-68
2022/07/29 11:43:53;;;;;;;10.40;9.00;;;20.80;99.90;;;;;;5016500;28;20507;-69
2022/07/29 11:46:48;;;;;;;11.30;10.37;;;20.60;99.90;;;;;;5013869;28;20476;-69
2022/07/29 11:49:25;;;;;;;12.13;11.13;;;20.50;99.90;;;;;;5019330;28;20450;-67
2022/07/29 11:51:52;;;;;;;12.73;11.53;;;20.50;99.90;;;;;;5011923;28;20414;-70
2022/07/29 11:54:34;;;;;;;11.07;10.17;;;20.80;99.90;;;;;;5014667;28;20412;-70
2022/07/29 11:57:00;;;;;;;10.03;9.13;;;21.10;99.90;;;;;;5012853;28;20414;-66
2022/07/29 11:59:27;;;;;;;9.20;8.40;;;21.40;99.90;;;;;;5010178;28;20431;-67
2022/07/29 12:01:57;;;;;;;8.10;7.50;;;21.60;99.90;;;;;;5005578;28;20476;-68
2022/07/29 12:04:29;;;;;;;10.30;9.40;;;21.70;99.90;;;;;;5011266;28;20455;-67
2022/07/29 12:06:56;;;;;;;10.17;9.30;;;22.10;99.90;;;;;;5012425;28;20844;-72
2022/07/29 12:09:26;;;;;;;10.13;9.23;;;22.20;99.90;;;;;;5012921;28;20429;-66
2022/07/29 12:11:58;;;;;;;8.93;8.17;;;22.30;99.90;;;;;;5011972;28;20480;-67
2022/07/29 12:14:32;;;;;;;9.40;8.50;;;22.30;99.90;;;;;;5017301;28;20417;-66
2022/07/29 12:16:59;;;;;;;8.87;8.07;;;22.40;99.90;;;;;;5004878;28;20438;-67
2022/07/29 12:19:26;;;;;;;8.37;7.67;;;22.30;99.90;;;;;;5003098;28;20551;-69
2022/07/29 12:21:59;;;;;;;7.63;7.03;;;22.40;99.90;;;;;;5008883;28;20488;-67
2022/07/29 12:24:25;;;;;;;7.67;7.07;;;22.50;99.90;;;;;;5008876;28;20486;-67
2022/07/29 12:26:56;;;;;;;7.67;7.03;;;22.80;99.90;;;;;;5009315;28;20489;-67
2022/07/29 12:29:22;;;;;;;6.30;5.73;;;23.00;99.90;;;;;;5021785;28;20194;-67
2022/07/29 12:31:53;;;;;;;6.60;6.00;;;23.00;99.90;;;;;;5013673;28;21040;-67
2022/07/29 12:34:22;;;;;;;5.73;5.30;;;23.00;99.90;;;;;;5017560;28;20414;-72
2022/07/29 12:36:48;;;;;;;5.93;5.43;;;22.80;99.90;;;;;;4985546;28;20506;-71
2022/07/29 12:39:16;;;;;;;6.20;5.70;;;22.40;99.90;;;;;;5005013;28;20601;-66
2022/07/29 12:41:43;;;;;;;7.10;6.50;;;21.80;99.90;;;;;;5020431;28;20410;-67
2022/07/29 12:44:10;;;;;;;7.27;6.57;;;21.70;99.90;;;;;;5003440;28;20526;-67
2022/07/29 12:46:36;;;;;;;6.93;6.43;;;21.90;99.90;;;;;;5005573;28;20484;-67
2022/07/29 12:49:02;;;;;;;6.50;5.90;;;22.00;99.90;;;;;;5022671;28;20519;-67
2022/07/29 12:51:36;;;;;;;5.70;5.20;;;22.00;99.90;;;;;;5005588;28;20600;-70
2022/07/29 12:54:13;;;;;;;6.33;5.83;;;21.90;99.90;;;;;;5013841;28;20425;-67
2022/07/29 12:56:43;;;;;;;7.00;5.67;;;22.00;99.90;;;;;;5019915;28;20459;-67
2022/07/29 12:59:20;;;;;;;6.30;5.90;;;21.80;99.90;;;;;;5014775;28;20473;-70
2022/07/29 13:01:48;;;;;;;7.03;6.43;;;21.70;99.90;;;;;;5023375;28;20504;-66